Time;durP1;ratioP1;P1;durP2;ratioP2;P2;SDS_P1;SDS_P2;PMS_P1;PMS_P2;Temp;Humidity;BMP_temperature;BMP_pressure;BME280_temperature;BME280_humidity;BME280_pressure;Samples;Min_cycle;Max_cycle;Signal;HPM_P1;HPM_P2
2021/05/24 00:01:20;;;;;;;4.40;1.70;;;;;;;10.99;62.88;99841.69;2232518;40;20041;-78
2021/05/24 00:02:51;;;;;;;6.78;2.28;;;;;;;10.98;62.95;99850.69;2230437;40;20056;-78
2021/05/24 00:04:23;;;;;;;4.50;1.95;;;;;;;10.99;62.89;99851.56;2237435;40;20070;-78
2021/05/24 00:05:54;;;;;;;4.50;2.05;;;;;;;10.98;63.18;99850.69;2232561;40;20074;-79
2021/05/24 00:07:26;;;;;;;4.22;2.00;;;;;;;10.99;63.13;99849.72;2231345;40;20107;-78
2021/05/24 00:08:57;;;;;;;3.65;1.90;;;;;;;10.95;63.25;99845.69;2231140;40;20428;-78
2021/05/24 00:10:32;;;;;;;6.10;2.63;;;;;;;10.96;63.26;99841.97;2233385;40;20099;-78
2021/05/24 00:12:04;;;;;;;5.88;2.05;;;;;;;10.91;63.49;99845.09;2234440;40;20048;-78
2021/05/24 00:13:44;;;;;;;4.47;2.33;;;;;;;10.87;63.49;99833.06;2230616;40;20048;-79
2021/05/24 00:15:20;;;;;;;4.22;1.60;;;;;;;10.87;63.46;99840.22;2231532;40;20082;-79
2021/05/24 00:16:52;;;;;;;5.40;2.50;;;;;;;10.86;63.82;99842.06;2236361;40;20438;-77
2021/05/24 00:18:23;;;;;;;6.28;2.55;;;;;;;10.83;63.89;99839.69;2228177;40;20072;-78
2021/05/24 00:19:54;;;;;;;5.03;2.15;;;;;;;10.79;64.09;99832.13;2224091;40;20060;-77
2021/05/24 00:21:26;;;;;;;7.22;2.20;;;;;;;10.73;64.28;99815.69;2233784;40;20039;-78
2021/05/24 00:22:57;;;;;;;3.75;1.92;;;;;;;10.71;64.32;99822.19;2236097;40;20028;-77
2021/05/24 00:24:29;;;;;;;5.70;2.00;;;;;;;10.70;64.39;99815.16;2237237;40;20032;-77
2021/05/24 00:26:02;;;;;;;5.38;2.33;;;;;;;10.66;64.72;99816.44;2235777;40;20063;-77
2021/05/24 00:27:33;;;;;;;5.78;2.30;;;;;;;10.62;64.78;99813.25;2237075;40;20048;-78
2021/05/24 00:29:05;;;;;;;4.40;1.98;;;;;;;10.64;64.79;99816.59;2235508;40;20024;-77
2021/05/24 00:30:38;;;;;;;3.75;1.65;;;;;;;10.66;64.69;99814.63;2180121;40;20087;-78
2021/05/24 00:32:10;;;;;;;4.60;2.08;;;;;;;10.69;64.71;99813.47;2194524;40;20042;-79
2021/05/24 00:33:42;;;;;;;5.22;2.38;;;;;;;10.68;64.59;99812.63;2198457;40;20142;-77
2021/05/24 00:35:13;;;;;;;4.75;2.17;;;;;;;10.63;64.71;99812.25;2204367;40;20037;-79
2021/05/24 00:36:45;;;;;;;5.53;2.22;;;;;;;10.62;64.97;99813.25;2201162;40;20565;-79
2021/05/24 00:38:16;;;;;;;4.47;2.30;;;;;;;10.60;64.99;99815.22;2199989;40;20313;-79
2021/05/24 00:39:48;;;;;;;5.07;2.50;;;;;;;10.58;65.08;99814.53;2174613;40;20085;-79
2021/05/24 00:41:19;;;;;;;6.80;2.35;;;;;;;10.57;65.30;99810.19;2202026;40;20090;-79
2021/05/24 00:42:51;;;;;;;5.35;2.22;;;;;;;10.55;65.31;99801.47;2217798;40;20034;-79
2021/05/24 00:44:24;;;;;;;5.53;2.20;;;;;;;10.53;65.46;99806.13;2210928;40;20037;-80
2021/05/24 00:46:00;;;;;;;4.80;2.30;;;;;;;10.47;65.36;99798.72;2227402;40;20036;-80
2021/05/24 00:47:33;;;;;;;7.05;2.20;;;;;;;10.45;65.48;99802.38;2195768;40;20444;-80
2021/05/24 00:49:05;;;;;;;5.13;2.25;;;;;;;10.45;65.46;99805.06;2199825;40;20039;-80
2021/05/24 00:50:38;;;;;;;4.28;2.03;;;;;;;10.45;65.34;99809.53;2207878;40;20033;-79
2021/05/24 00:52:11;;;;;;;4.75;2.28;;;;;;;10.43;65.58;99812.38;2217458;40;20042;-80
2021/05/24 00:53:43;;;;;;;4.78;2.03;;;;;;;10.43;65.46;99804.34;2215087;40;20076;-80
2021/05/24 00:55:16;;;;;;;5.38;2.20;;;;;;;10.38;65.66;99801.31;2213089;40;20042;-80
2021/05/24 00:56:48;;;;;;;6.05;2.70;;;;;;;10.34;65.66;99805.22;2213706;40;20041;-80
2021/05/24 00:58:21;;;;;;;4.90;2.35;;;;;;;10.34;65.76;99804.38;2219474;40;20042;-80
2021/05/24 00:59:52;;;;;;;7.10;2.63;;;;;;;10.35;65.76;99804.22;2217685;40;20111;-80
2021/05/24 01:01:28;;;;;;;7.25;2.72;;;;;;;10.30;65.93;99790.47;2219326;40;20113;-80
2021/05/24 01:03:00;;;;;;;5.47;2.50;;;;;;;10.27;66.04;99783.59;2217481;40;20047;-80
2021/05/24 01:04:34;;;;;;;5.15;2.42;;;;;;;10.26;66.25;99778.41;2219241;40;20041;-80
2021/05/24 01:06:06;;;;;;;5.45;2.60;;;;;;;10.23;66.22;99774.22;2217970;40;20045;-78
2021/05/24 01:07:37;;;;;;;6.28;3.05;;;;;;;10.19;66.39;99772.81;2219779;40;20061;-80
2021/05/24 01:09:10;;;;;;;5.60;2.50;;;;;;;10.16;66.50;99770.44;2217451;40;20081;-80
2021/05/24 01:10:44;;;;;;;4.57;2.10;;;;;;;10.15;66.78;99774.13;2218668;40;20029;-79
2021/05/24 01:12:16;;;;;;;7.03;2.00;;;;;;;10.15;66.60;99766.09;2216747;40;20049;-80
2021/05/24 01:13:48;;;;;;;5.18;2.42;;;;;;;10.18;66.67;99767.63;2219160;40;20041;-80
2021/05/24 01:15:19;;;;;;;5.45;2.15;;;;;;;10.13;66.84;99752.88;2217069;40;20055;-78
2021/05/24 01:16:54;;;;;;;6.20;2.40;;;;;;;10.09;67.05;99756.00;2217784;40;20033;-79
2021/05/24 01:18:25;;;;;;;7.57;2.88;;;;;;;10.03;67.27;99762.75;2201150;40;20057;-79
2021/05/24 01:19:57;;;;;;;5.72;2.13;;;;;;;10.02;67.29;99774.44;2210512;40;20038;-79
2021/05/24 01:21:32;;;;;;;4.75;2.25;;;;;;;10.04;67.49;99761.78;2210767;40;20366;-79
2021/05/24 01:23:13;;;;;;;8.70;2.42;;;;;;;10.05;67.40;99758.13;2212821;40;20116;-80
2021/05/24 01:24:44;;;;;;;7.65;2.17;;;;;;;10.05;67.47;99763.47;2178197;40;20049;-80
2021/05/24 01:26:17;;;;;;;5.82;2.65;;;;;;;10.05;67.43;99762.63;2210732;40;20041;-80
2021/05/24 01:27:51;;;;;;;4.32;2.10;;;;;;;9.96;67.57;99757.19;2199241;40;20049;-80
2021/05/24 01:29:22;;;;;;;7.50;2.88;;;;;;;9.95;67.58;99763.53;2209224;40;20425;-79
2021/05/24 01:30:55;;;;;;;5.20;2.42;;;;;;;9.94;68.04;99769.84;2199310;40;20069;-80
2021/05/24 01:32:27;;;;;;;5.00;2.20;;;;;;;9.96;67.82;99761.69;2193476;40;20041;-79
2021/05/24 01:34:01;;;;;;;6.80;2.05;;;;;;;10.00;67.63;99773.78;2166537;41;20489;-80
2021/05/24 01:35:42;;;;;;;6.03;2.28;;;;;;;10.01;67.53;99766.59;2187402;40;20044;-80
2021/05/24 01:37:24;;;;;;;5.57;2.30;;;;;;;9.98;67.55;99765.88;2213443;40;20040;-81
2021/05/24 01:38:57;;;;;;;5.15;2.20;;;;;;;9.93;67.82;99770.84;2201693;40;20390;-80
2021/05/24 01:40:28;;;;;;;4.47;2.15;;;;;;;9.90;67.61;99754.28;2214757;40;20037;-80
2021/05/24 01:42:24;;;;;;;4.55;2.20;;;;;;;9.90;67.75;99748.94;2217617;40;20049;-80
2021/05/24 01:44:00;;;;;;;5.57;2.20;;;;;;;9.84;67.83;99750.38;2218508;40;20041;-79
2021/05/24 01:45:43;;;;;;;6.18;2.45;;;;;;;9.80;67.98;99739.13;2218133;40;20130;-81
2021/05/24 01:47:25;;;;;;;5.22;1.90;;;;;;;9.82;67.87;99744.31;2218188;40;20034;-80
2021/05/24 01:48:57;;;;;;;4.20;2.10;;;;;;;9.82;67.98;99739.81;2216405;40;20042;-80
2021/05/24 01:50:29;;;;;;;5.40;2.70;;;;;;;9.80;68.24;99741.81;2224711;40;20045;-80
2021/05/24 01:52:01;;;;;;;7.45;2.55;;;;;;;9.76;68.24;99743.09;2225240;40;20077;-80
2021/05/24 01:53:44;;;;;;;5.03;2.40;;;;;;;9.75;68.31;99741.41;2199590;40;20033;-80
2021/05/24 01:55:18;;;;;;;5.20;2.08;;;;;;;9.75;68.11;99732.56;2211662;40;20402;-79
2021/05/24 01:56:52;;;;;;;6.80;2.35;;;;;;;9.72;68.36;99736.38;2225836;40;20040;-79
2021/05/24 01:58:26;;;;;;;7.25;2.35;;;;;;;9.67;68.49;99739.47;2225416;40;20032;-80
2021/05/24 01:59:58;;;;;;;7.15;2.70;;;;;;;9.65;68.58;99729.91;2200364;40;20510;-79
2021/05/24 02:01:34;;;;;;;6.72;2.53;;;;;;;9.67;68.74;99738.63;2222280;40;20025;-79
2021/05/24 02:03:07;;;;;;;4.00;1.77;;;;;;;9.61;68.74;99731.22;2209775;40;20037;-81
2021/05/24 02:04:42;;;;;;;4.53;2.20;;;;;;;9.60;68.78;99727.69;2225096;40;20341;-79
2021/05/24 02:06:31;;;;;;;4.95;2.20;;;;;;;9.57;68.61;99721.81;2212238;40;20037;-79
2021/05/24 02:08:21;;;;;;;4.53;1.90;;;;;;;9.59;68.71;99735.84;2224694;40;20441;-80
2021/05/24 02:09:55;;;;;;;6.95;2.83;;;;;;;9.56;68.65;99723.66;2166747;41;20064;-80
2021/05/24 02:11:37;;;;;;;5.10;2.63;;;;;;;9.51;68.63;99726.75;2210402;40;20038;-79
2021/05/24 02:13:12;;;;;;;11.13;3.17;;;;;;;9.51;68.75;99731.22;2217941;40;20034;-79
2021/05/24 02:15:23;;;;;;;5.50;2.33;;;;;;;9.43;68.94;99721.31;2210732;40;20057;-79
2021/05/24 02:16:55;;;;;;;6.43;2.10;;;;;;;9.42;68.93;99722.28;2217843;40;20369;-79
2021/05/24 02:18:27;;;;;;;4.40;2.42;;;;;;;9.41;69.03;99725.94;2216706;40;20131;-78
2021/05/24 02:19:58;;;;;;;6.45;2.00;;;;;;;9.39;69.22;99708.41;2224678;40;20029;-79
2021/05/24 02:21:30;;;;;;;4.82;2.20;;;;;;;9.37;68.91;99711.19;2222362;40;20133;-79
2021/05/24 02:23:03;;;;;;;4.53;2.28;;;;;;;9.37;68.89;99716.53;2224284;40;20325;-79
2021/05/24 02:24:35;;;;;;;5.93;2.30;;;;;;;9.34;69.27;99711.50;2225087;40;20033;-79
2021/05/24 02:26:07;;;;;;;4.95;2.05;;;;;;;9.27;69.29;99718.38;2225170;40;20040;-81
2021/05/24 02:27:39;;;;;;;4.90;2.25;;;;;;;9.25;69.47;99723.03;2214700;40;20033;-80
2021/05/24 02:29:11;;;;;;;4.78;2.10;;;;;;;9.24;69.53;99719.50;2224737;40;20036;-79
2021/05/24 02:30:43;;;;;;;5.85;2.25;;;;;;;9.24;69.81;99719.50;2179070;40;20050;-80
2021/05/24 02:32:14;;;;;;;5.53;2.45;;;;;;;9.25;69.61;99717.72;2220590;40;20372;-79
2021/05/24 02:33:46;;;;;;;4.97;2.30;;;;;;;9.25;69.67;99721.19;2187980;40;20042;-79
2021/05/24 02:35:19;;;;;;;5.00;2.50;;;;;;;9.21;69.70;99712.66;2220200;40;20033;-80
2021/05/24 02:36:50;;;;;;;5.82;2.90;;;;;;;9.15;69.66;99710.56;2222829;40;20045;-81
2021/05/24 02:38:26;;;;;;;5.03;2.15;;;;;;;9.10;70.03;99711.97;2223717;40;20400;-80
2021/05/24 02:39:58;;;;;;;5.80;2.60;;;;;;;9.08;70.07;99712.09;2231555;40;20044;-80
2021/05/24 02:41:30;;;;;;;8.65;2.75;;;;;;;9.11;69.90;99706.50;2211915;40;20061;-83
2021/05/24 02:43:04;;;;;;;5.75;2.35;;;;;;;9.12;69.93;99694.84;2209750;40;20046;-80
2021/05/24 02:44:36;;;;;;;5.40;2.88;;;;;;;9.16;69.88;99701.56;2203866;40;20043;-78
2021/05/24 02:46:07;;;;;;;4.45;2.10;;;;;;;9.18;69.54;99694.25;2192492;40;20039;-80
2021/05/24 02:47:39;;;;;;;7.13;2.70;;;;;;;9.21;69.68;99693.13;2181097;40;20043;-78
2021/05/24 02:49:11;;;;;;;4.80;2.30;;;;;;;9.21;69.71;99693.97;2180971;40;20043;-80
2021/05/24 02:50:44;;;;;;;5.43;2.70;;;;;;;9.20;69.60;99686.97;2184991;40;20055;-80
2021/05/24 02:52:16;;;;;;;4.28;1.98;;;;;;;9.20;69.66;99692.28;2191617;40;20090;-81
2021/05/24 02:53:48;;;;;;;4.70;2.25;;;;;;;9.23;69.67;99685.81;2198848;40;20046;-80
2021/05/24 02:55:27;;;;;;;5.20;2.47;;;;;;;9.23;69.55;99683.16;2210943;40;20048;-80
2021/05/24 02:59:22;;;;;;;6.40;2.60;;;;;;;9.11;69.90;99679.81;2216062;40;20030;-80
2021/05/24 03:00:54;;;;;;;7.15;3.35;;;;;;;9.04;70.14;99684.06;2222918;40;20033;-78
2021/05/24 03:02:26;;;;;;;7.28;3.35;;;;;;;9.00;70.38;99690.66;2218455;40;20054;-77
2021/05/24 03:04:02;;;;;;;6.10;3.03;;;;;;;8.97;70.69;99673.13;2217810;40;20053;-77
2021/05/24 03:05:33;;;;;;;5.78;2.72;;;;;;;8.98;70.64;99673.94;2218023;40;20037;-78
2021/05/24 03:07:06;;;;;;;5.45;2.28;;;;;;;9.01;70.75;99673.66;2170894;40;20034;-79
2021/05/24 03:08:38;;;;;;;5.88;2.67;;;;;;;9.02;70.61;99680.69;2199626;40;20046;-77
2021/05/24 03:10:10;;;;;;;6.95;3.28;;;;;;;9.05;70.57;99681.25;2199181;40;20494;-78
2021/05/24 03:11:41;;;;;;;5.25;2.47;;;;;;;9.09;70.68;99680.97;2201932;40;20037;-78
2021/05/24 03:13:13;;;;;;;9.10;2.97;;;;;;;9.09;70.50;99684.47;2213089;40;20468;-77
2021/05/24 03:14:44;;;;;;;4.95;2.67;;;;;;;9.09;70.45;99687.13;2205627;40;20062;-77
2021/05/24 03:16:16;;;;;;;5.47;3.10;;;;;;;9.08;70.77;99690.78;2206376;40;20050;-77
2021/05/24 03:17:48;;;;;;;5.90;3.10;;;;;;;9.08;70.68;99687.28;2205080;40;20506;-77
2021/05/24 03:19:19;;;;;;;5.78;2.85;;;;;;;9.05;70.75;99675.09;2195011;40;20047;-77
2021/05/24 03:20:50;;;;;;;7.40;3.28;;;;;;;9.04;70.70;99682.22;2182609;40;20066;-77
2021/05/24 03:22:22;;;;;;;6.93;3.80;;;;;;;9.01;70.75;99687.88;2164378;41;20541;-77
2021/05/24 03:23:53;;;;;;;8.43;3.50;;;;;;;9.00;70.68;99686.19;2153344;41;20045;-79
2021/05/24 03:25:25;;;;;;;5.22;2.80;;;;;;;8.97;70.73;99683.78;2152553;41;20456;-77
2021/05/24 03:26:57;;;;;;;6.13;3.50;;;;;;;8.86;70.45;99675.94;2150707;41;20065;-77
2021/05/24 03:28:28;;;;;;;6.20;2.72;;;;;;;8.85;70.69;99693.78;2161746;41;20052;-78
2021/05/24 03:43:33;;;;;;;6.10;2.33;;;;;;;8.85;70.37;99691.09;2181233;40;20043;-77
2021/05/24 03:45:08;;;;;;;6.53;2.22;;;;;;;8.86;70.63;99697.28;2204993;40;20038;-77
2021/05/24 03:46:39;;;;;;;5.05;2.25;;;;;;;8.83;70.74;99693.06;2187859;40;20595;-78
2021/05/24 03:48:10;;;;;;;4.38;2.20;;;;;;;8.84;71.00;99700.09;2193509;40;20055;-79
2021/05/24 03:49:45;;;;;;;6.13;2.53;;;;;;;8.86;70.99;99703.47;2210185;40;20039;-77
2021/05/24 03:51:16;;;;;;;4.28;2.20;;;;;;;8.83;70.66;99693.06;2210664;40;20033;-77
2021/05/24 03:52:48;;;;;;;7.88;2.95;;;;;;;8.82;70.72;99694.03;2212950;40;20113;-78
2021/05/24 03:54:19;;;;;;;5.22;2.15;;;;;;;8.82;70.89;99696.72;2211037;40;20061;-76
2021/05/24 03:55:51;;;;;;;4.80;1.83;;;;;;;8.82;70.75;99690.56;2206240;40;20152;-78
2021/05/24 03:57:22;;;;;;;3.80;1.90;;;;;;;8.82;70.98;99685.22;2193969;40;20053;-78
2021/05/24 03:58:54;;;;;;;6.03;2.40;;;;;;;8.83;70.70;99681.59;2202213;40;20058;-77
2021/05/24 04:00:26;;;;;;;4.13;1.85;;;;;;;8.81;70.86;99694.19;2195033;40;20054;-77
2021/05/24 04:01:58;;;;;;;3.72;2.00;;;;;;;8.80;70.58;99692.50;2186642;40;20083;-78
2021/05/24 04:03:29;;;;;;;4.95;2.15;;;;;;;8.82;70.94;99691.38;2187913;40;20023;-78
2021/05/24 04:05:04;;;;;;;5.60;1.90;;;;;;;8.82;70.45;99691.38;2193228;40;20039;-77
2021/05/24 04:06:37;;;;;;;3.97;1.65;;;;;;;8.82;70.55;99695.88;2201869;40;20080;-77
2021/05/24 04:08:09;;;;;;;3.85;1.60;;;;;;;8.85;70.32;99704.44;2200882;40;20031;-77
2021/05/24 04:09:42;;;;;;;5.07;2.10;;;;;;;8.88;70.15;99689.97;2202684;40;20097;-78
2021/05/24 04:11:14;;;;;;;6.80;2.83;;;;;;;8.81;70.31;99681.69;2212672;40;20073;-77
2021/05/24 04:12:47;;;;;;;5.10;2.30;;;;;;;8.82;70.27;99688.72;2214941;40;20094;-80
2021/05/24 04:14:20;;;;;;;4.65;2.10;;;;;;;8.83;70.25;99687.75;2212273;40;20041;-81
2021/05/24 04:15:57;;;;;;;3.85;2.10;;;;;;;8.85;70.09;99688.44;2200087;40;20053;-80
2021/05/24 04:17:30;;;;;;;6.40;2.85;;;;;;;8.84;70.21;99683.22;2200061;40;20038;-80
2021/05/24 04:19:06;;;;;;;5.25;1.90;;;;;;;8.81;70.17;99689.69;2209850;40;20550;-80
2021/05/24 04:21:09;;;;;;;5.10;2.00;;;;;;;8.81;70.36;99689.69;2218647;40;20114;-79
2021/05/24 04:28:28;;;;;;;4.80;2.10;;;;;;;8.75;70.15;99679.63;2187158;40;20051;-80
2021/05/24 04:30:41;;;;;;;4.47;1.88;;;;;;;8.78;70.26;99684.66;2181998;40;20561;-80
2021/05/24 04:37:07;;;;;;;3.63;1.67;;;;;;;8.69;70.41;99689.00;2200764;40;20055;-78
2021/05/24 04:38:42;;;;;;;7.15;2.75;;;;;;;8.72;70.53;99679.88;2198184;40;20070;-80
2021/05/24 04:40:36;;;;;;;5.75;2.22;;;;;;;8.72;70.61;99682.56;2226926;40;20025;-80
2021/05/24 04:42:08;;;;;;;7.55;2.25;;;;;;;8.74;70.68;99685.94;2227002;40;20627;-80
2021/05/24 04:43:41;;;;;;;6.00;2.30;;;;;;;8.68;70.72;99687.31;2230055;40;20427;-78
2021/05/24 04:45:13;;;;;;;4.50;2.38;;;;;;;8.67;70.88;99676.81;2225392;40;20045;-79
2021/05/24 04:46:45;;;;;;;5.78;3.33;;;;;;;8.69;70.88;99685.53;2214804;40;89272;-79
2021/05/24 04:48:16;;;;;;;5.85;2.35;;;;;;;8.63;70.86;99686.06;2215868;40;20110;-77
2021/05/24 04:49:50;;;;;;;4.63;1.70;;;;;;;8.63;70.90;99686.06;2215482;40;20073;-77
2021/05/24 04:51:21;;;;;;;4.88;2.00;;;;;;;8.70;70.96;99685.38;2214772;40;20061;-77
2021/05/24 04:52:54;;;;;;;6.38;2.38;;;;;;;8.74;70.81;99669.94;2218385;40;20045;-78
2021/05/24 05:21:00;;;;;;;3.83;1.98;;;;;;;8.84;70.33;99648.59;2210432;40;20046;-78
2021/05/24 05:22:32;;;;;;;5.60;2.80;;;;;;;8.88;70.45;99642.81;2214300;40;20448;-79
2021/05/24 05:24:04;;;;;;;5.63;2.20;;;;;;;8.87;70.34;99657.16;2206536;40;20034;-78
2021/05/24 05:25:36;;;;;;;5.93;2.60;;;;;;;8.93;69.90;99655.72;2200843;40;20037;-78
2021/05/24 05:27:07;;;;;;;6.22;2.60;;;;;;;9.03;69.92;99658.38;2202528;40;20071;-77
2021/05/24 05:28:39;;;;;;;4.55;2.15;;;;;;;9.14;69.68;99655.53;2209470;40;20062;-77
2021/05/24 05:30:12;;;;;;;4.70;2.22;;;;;;;9.19;69.56;99655.94;2206303;40;20061;-78
2021/05/24 05:31:43;;;;;;;4.72;2.33;;;;;;;9.24;69.17;99641.34;2209280;40;20025;-78
2021/05/24 05:33:15;;;;;;;6.22;3.00;;;;;;;9.28;69.12;99654.25;2211451;40;20049;-79
2021/05/24 05:34:46;;;;;;;4.30;2.08;;;;;;;9.30;68.77;99651.41;2210753;40;20042;-78
2021/05/24 05:36:20;;;;;;;4.57;2.33;;;;;;;9.38;68.83;99648.84;2208527;40;20042;-78
2021/05/24 05:37:52;;;;;;;5.80;2.35;;;;;;;9.39;68.72;99644.38;2212083;40;20042;-79
2021/05/24 05:39:30;;;;;;;4.75;2.15;;;;;;;9.41;68.66;99643.22;2214985;40;20049;-79
2021/05/24 05:44:02;;;;;;;4.72;2.33;;;;;;;9.37;68.71;99641.81;2198488;40;20039;-78
2021/05/24 05:45:34;;;;;;;4.63;2.22;;;;;;;9.39;68.63;99645.19;2171960;40;20044;-78
2021/05/24 05:47:05;;;;;;;5.30;2.20;;;;;;;9.41;68.57;99639.69;2192478;40;20130;-79
2021/05/24 05:48:37;;;;;;;4.88;2.08;;;;;;;9.41;68.87;99642.38;2207398;40;20392;-78
2021/05/24 05:50:10;;;;;;;4.57;1.90;;;;;;;9.46;68.67;99640.94;2214376;40;20029;-77
2021/05/24 05:51:43;;;;;;;4.10;1.92;;;;;;;9.50;68.48;99636.16;2214358;40;20054;-78
2021/05/24 05:53:15;;;;;;;4.90;1.90;;;;;;;9.52;68.46;99640.38;2214851;40;20041;-80
2021/05/24 05:54:47;;;;;;;6.15;2.10;;;;;;;9.58;68.34;99633.59;2209050;40;20397;-78
2021/05/24 05:56:19;;;;;;;4.95;1.90;;;;;;;9.61;68.33;99643.13;2211416;40;20086;-78
2021/05/24 05:57:53;;;;;;;7.03;2.90;;;;;;;9.66;68.25;99640.84;2214056;40;20054;-79
2021/05/24 05:59:24;;;;;;;5.15;1.85;;;;;;;9.74;67.96;99630.25;2214440;40;20030;-77
2021/05/24 06:00:55;;;;;;;5.43;1.90;;;;;;;9.80;67.83;99624.34;2217611;40;20084;-78
2021/05/24 06:02:27;;;;;;;5.20;2.00;;;;;;;9.88;67.69;99630.75;2216110;40;20081;-78
2021/05/24 06:03:59;;;;;;;6.28;2.10;;;;;;;9.90;67.39;99621.59;2214464;40;20038;-80
2021/05/24 06:05:31;;;;;;;4.60;2.25;;;;;;;9.92;67.51;99624.97;2209392;40;20059;-80
2021/05/24 06:07:07;;;;;;;5.95;2.38;;;;;;;9.95;67.35;99626.50;2211721;40;20062;-80
2021/05/24 06:08:38;;;;;;;4.78;1.75;;;;;;;9.95;67.29;99629.16;2204541;40;20034;-77
2021/05/24 06:10:12;;;;;;;5.10;2.67;;;;;;;9.99;67.53;99630.53;2215105;40;20362;-77
2021/05/24 06:11:43;;;;;;;5.93;2.65;;;;;;;10.03;67.18;99615.06;2209967;40;20029;-78
2021/05/24 06:13:14;;;;;;;4.88;2.00;;;;;;;10.00;67.29;99610.88;2206306;40;20034;-80
2021/05/24 06:14:46;;;;;;;8.35;2.55;;;;;;;9.93;67.51;99615.09;2219262;40;20057;-77
2021/05/24 06:16:17;;;;;;;4.85;2.20;;;;;;;9.95;67.42;99610.47;2211008;40;20049;-79
2021/05/24 06:17:49;;;;;;;4.75;2.08;;;;;;;9.99;67.54;99609.19;2205280;40;20077;-79
2021/05/24 06:19:20;;;;;;;3.80;1.73;;;;;;;10.06;67.50;99602.25;2205468;40;20036;-78
2021/05/24 06:20:52;;;;;;;4.55;2.05;;;;;;;10.12;67.01;99604.28;2187010;40;20068;-78
2021/05/24 06:22:24;;;;;;;4.18;2.20;;;;;;;10.15;66.95;99601.31;2204910;40;20041;-76
2021/05/24 06:23:56;;;;;;;6.28;2.08;;;;;;;10.21;66.70;99601.69;2181402;40;21184;-76
2021/05/24 06:25:28;;;;;;;6.25;2.20;;;;;;;10.20;66.64;99597.38;2206801;40;20040;-78
2021/05/24 06:26:59;;;;;;;4.15;2.10;;;;;;;10.23;66.80;99600.56;2205446;40;20088;-78
2021/05/24 06:28:32;;;;;;;5.38;2.05;;;;;;;10.28;66.82;99592.91;2216823;40;20041;-79
2021/05/24 06:30:05;;;;;;;5.10;2.10;;;;;;;10.33;66.36;99595.13;2211136;40;20045;-78
2021/05/24 06:31:38;;;;;;;4.40;2.20;;;;;;;10.40;66.28;99596.22;2216326;40;20049;-76
2021/05/24 06:33:10;;;;;;;5.65;2.50;;;;;;;10.49;66.06;99590.94;2209265;40;20446;-78
2021/05/24 06:34:41;;;;;;;5.10;2.33;;;;;;;10.57;65.80;99585.66;2210897;40;20058;-78
2021/05/24 06:36:15;;;;;;;5.63;2.40;;;;;;;10.61;65.78;99593.22;2210512;40;20052;-78
2021/05/24 06:37:48;;;;;;;4.50;2.03;;;;;;;10.63;65.67;99600.25;2210897;40;20068;-78
2021/05/24 06:39:20;;;;;;;5.03;1.75;;;;;;;10.72;65.18;99604.66;2208896;40;20118;-76
2021/05/24 06:40:52;;;;;;;4.18;2.10;;;;;;;10.76;65.00;99601.50;2215663;40;20438;-77
2021/05/24 06:42:24;;;;;;;5.22;2.25;;;;;;;10.77;64.84;99592.47;2216531;40;20056;-79
2021/05/24 06:44:01;;;;;;;5.40;2.50;;;;;;;10.82;64.47;99594.66;2217314;40;20385;-80
2021/05/24 06:45:40;;;;;;;4.70;1.95;;;;;;;10.87;64.38;99589.69;2176108;40;20051;-82
2021/05/24 06:47:38;;;;;;;5.45;2.00;;;;;;;10.92;64.32;99591.91;2219905;40;20029;-82
2021/05/24 06:49:09;;;;;;;9.02;2.53;;;;;;;10.91;64.26;99590.22;2196717;40;20034;-79
2021/05/24 06:50:40;;;;;;;6.47;1.80;;;;;;;10.86;64.40;99596.03;2217636;40;27520;-76
2021/05/24 06:52:12;;;;;;;7.85;2.75;;;;;;;10.92;64.46;99599.94;2214287;40;20030;-79
2021/05/24 06:53:44;;;;;;;7.72;3.38;;;;;;;10.97;64.20;99600.28;2198852;40;20701;-78
2021/05/24 06:55:16;;;;;;;4.90;2.35;;;;;;;11.02;64.14;99600.66;2207637;40;20053;-78
2021/05/24 06:56:47;;;;;;;7.20;2.55;;;;;;;11.03;64.04;99591.63;2191022;40;20056;-80
2021/05/24 06:58:18;;;;;;;4.78;2.15;;;;;;;11.10;63.96;99594.50;2174590;41;20055;-77
2021/05/24 06:59:50;;;;;;;4.63;2.20;;;;;;;11.15;63.92;99596.69;2172927;41;20065;-78
2021/05/24 07:01:21;;;;;;;4.13;1.88;;;;;;;11.17;63.76;99592.03;2164725;41;20037;-79
2021/05/24 07:02:53;;;;;;;3.70;1.73;;;;;;;11.24;63.56;99585.06;2184181;40;20054;-79
2021/05/24 07:04:24;;;;;;;3.28;1.42;;;;;;;11.32;63.59;99581.56;2201018;40;20354;-79
2021/05/24 07:05:56;;;;;;;6.68;1.80;;;;;;;11.44;63.15;99574.94;2203925;40;20029;-78
2021/05/24 07:07:27;;;;;;;3.70;1.70;;;;;;;11.54;62.88;99570.28;2215295;40;20037;-79
2021/05/24 07:08:59;;;;;;;3.63;1.77;;;;;;;11.60;62.72;99565.25;2209812;40;20053;-78
2021/05/24 07:10:31;;;;;;;5.95;1.75;;;;;;;11.66;62.61;99568.13;2211959;40;20041;-77
2021/05/24 07:12:02;;;;;;;10.27;2.42;;;;;;;11.76;62.56;99570.63;2208854;40;20026;-78
2021/05/24 07:13:33;;;;;;;6.72;3.63;;;;;;;11.81;62.37;99573.69;2213335;40;20038;-78
2021/05/24 07:15:06;;;;;;;5.50;3.08;;;;;;;11.93;62.18;99571.53;2209912;40;20318;-79
2021/05/24 07:16:38;;;;;;;5.38;2.88;;;;;;;12.08;61.85;99568.22;2210629;40;20064;-78
2021/05/24 07:18:09;;;;;;;4.63;2.38;;;;;;;12.16;61.46;99562.88;2189268;40;20054;-80
2021/05/24 07:19:40;;;;;;;5.93;2.53;;;;;;;12.12;61.47;99574.91;2212140;40;20030;-78
2021/05/24 07:21:11;;;;;;;6.18;2.03;;;;;;;12.15;61.49;99569.25;2210014;40;20112;-80
2021/05/24 07:22:43;;;;;;;3.83;1.85;;;;;;;12.20;61.28;99566.06;2212490;40;20053;-78
2021/05/24 07:24:15;;;;;;;7.40;1.92;;;;;;;12.26;61.24;99565.38;2213800;40;20056;-78
2021/05/24 07:25:53;;;;;;;6.70;2.30;;;;;;;12.32;61.08;99564.72;2218051;40;20037;-82
2021/05/24 07:29:44;;;;;;;4.80;2.25;;;;;;;12.48;60.50;99554.00;2201270;40;20033;-81
2021/05/24 07:35:36;;;;;;;5.80;1.88;;;;;;;12.73;59.79;99561.16;2198332;40;20039;-80
2021/05/24 07:37:07;;;;;;;4.50;2.00;;;;;;;12.78;59.54;99559.63;2204787;40;20158;-80
2021/05/24 07:38:39;;;;;;;4.80;2.10;;;;;;;12.82;59.38;99549.41;2203907;40;22365;-80
2021/05/24 07:40:12;;;;;;;5.45;1.85;;;;;;;12.84;59.48;99557.28;2205443;40;20105;-81
2021/05/24 07:41:43;;;;;;;4.13;2.10;;;;;;;12.86;59.35;99553.41;2203559;40;20449;-80
2021/05/24 07:43:14;;;;;;;4.63;2.00;;;;;;;12.97;59.08;99546.84;2205323;40;20096;-80
2021/05/24 07:44:46;;;;;;;5.15;2.28;;;;;;;13.16;58.81;99550.13;2204243;40;20259;-80
2021/05/24 07:46:17;;;;;;;6.65;2.28;;;;;;;13.41;58.25;99548.22;2205637;40;20030;-80
2021/05/24 07:47:49;;;;;;;4.03;2.42;;;;;;;13.69;57.59;99545.03;2204293;40;20058;-80
2021/05/24 07:49:21;;;;;;;5.97;2.08;;;;;;;13.85;57.10;99544.94;2205260;40;20038;-80
2021/05/24 07:50:52;;;;;;;5.10;2.53;;;;;;;13.85;56.58;99534.19;2204038;40;20050;-80
2021/05/24 07:52:24;;;;;;;7.13;2.50;;;;;;;13.72;56.96;99528.56;2205538;40;20636;-80
2021/05/24 07:53:55;;;;;;;4.35;2.20;;;;;;;13.69;57.15;99531.63;2203880;40;20108;-79
2021/05/24 07:55:27;;;;;;;7.32;2.40;;;;;;;13.70;57.40;99519.81;2205171;40;20077;-80
2021/05/24 07:56:59;;;;;;;5.43;2.22;;;;;;;13.73;57.46;99516.78;2203656;40;20061;-80
2021/05/24 07:58:31;;;;;;;5.72;2.13;;;;;;;13.85;57.05;99511.84;2205192;40;20120;-80
2021/05/24 08:00:05;;;;;;;6.20;2.55;;;;;;;13.97;56.68;99509.59;2203617;40;20086;-80
2021/05/24 08:01:36;;;;;;;5.18;2.38;;;;;;;14.08;56.37;99516.38;2205030;40;20132;-80
2021/05/24 08:03:09;;;;;;;4.43;2.00;;;;;;;14.19;56.14;99513.25;2204265;40;20046;-81
2021/05/24 08:04:41;;;;;;;4.45;2.47;;;;;;;14.23;56.02;99514.56;2205930;40;20549;-80
2021/05/24 08:06:14;;;;;;;5.22;2.20;;;;;;;14.34;55.82;99507.91;2204173;40;20069;-80
2021/05/24 08:07:46;;;;;;;5.57;2.03;;;;;;;14.54;55.42;99510.09;2206090;40;20443;-80
2021/05/24 08:09:17;;;;;;;5.10;2.45;;;;;;;14.66;54.89;99505.91;2205483;40;20047;-80
2021/05/24 08:10:55;;;;;;;6.63;2.88;;;;;;;14.82;54.26;99519.22;2209246;40;20035;-81
2021/05/24 08:12:26;;;;;;;3.60;1.60;;;;;;;14.72;54.38;99512.44;2209234;40;20050;-82
2021/05/24 08:13:57;;;;;;;7.65;2.28;;;;;;;14.73;54.53;99517.66;2208903;40;20042;-81
2021/05/24 08:15:30;;;;;;;7.38;2.40;;;;;;;14.67;54.53;99510.31;2206544;40;20054;-80
2021/05/24 08:17:02;;;;;;;4.53;2.03;;;;;;;14.71;54.21;99516.16;2204830;40;20039;-80
2021/05/24 08:18:33;;;;;;;6.47;3.90;;;;;;;14.68;54.40;99511.97;2210452;40;20050;-80
2021/05/24 08:20:07;;;;;;;13.07;8.25;;;;;;;14.76;53.82;99519.94;2211241;40;20038;-80
2021/05/24 08:21:40;;;;;;;11.57;7.97;;;;;;;14.81;53.71;99516.69;2212916;40;20045;-79
2021/05/24 08:23:11;;;;;;;9.13;5.57;;;;;;;14.89;53.46;99515.78;2216222;40;20050;-79
2021/05/24 08:24:42;;;;;;;8.20;2.50;;;;;;;14.95;53.28;99513.19;2210460;40;20120;-80